This is the latest recevied weather packets stored in our database for station/object K6CQU-13. If no packets are shown the sender has not sent any weather packets the latest 10 day(s).
| Time | Temp. | Humidity | Pressure | Rain* | Wind** | Luminosity | Snow |
|---|---|---|---|---|---|---|---|
| 1777664117 | 23.33° C | 56% | 1013.3 hPa | 0 mm | - | 884 W/m² | - |
| 1777662917 | 22.78° C | 57% | 1013.6 hPa | 0 mm | - | 833 W/m² | - |
| 1777662617 | 23.33° C | 56% | 1013.7 hPa | 0 mm | - | 879 W/m² | - |
| 1777662317 | 23.33° C | 55% | 1013.6 hPa | 0 mm | - | 854 W/m² | - |
| 1777661717 | 22.78° C | 56% | 1013.7 hPa | 0 mm | - | 814 W/m² | - |
| 1777660216 | 22.22° C | 58% | 1014 hPa | 0 mm | - | 845 W/m² | - |
| 1777659316 | 22.22° C | 58% | 1014.1 hPa | 0 mm | - | 787 W/m² | - |
| 1777659016 | 22.78° C | 57% | 1014.2 hPa | 0 mm | - | 782 W/m² | - |
| 1777651818 | 18.89° C | 68% | 1014.1 hPa | 0 mm | - | 498 W/m² | - |
| 1777651518 | 18.89° C | 67% | 1014.1 hPa | 0 mm | - | 482 W/m² | - |
| 1777650918 | 18.33° C | 69% | 1014 hPa | 0 mm | - | 449 W/m² | - |
| 1777650618 | 18.33° C | 69% | 1014 hPa | 0 mm | - | 435 W/m² | - |
| 1777650018 | 17.78° C | 69% | 1014 hPa | 0 mm | - | 400 W/m² | - |
| 1777649718 | 17.78° C | 69% | 1013.9 hPa | 0 mm | - | 383 W/m² | - |
| 1777649418 | 17.78° C | 69% | 1013.9 hPa | 0 mm | - | 367 W/m² | - |
| 1777649118 | 17.22° C | 71% | 1013.9 hPa | 0 mm | - | 352 W/m² | - |
| 1777648818 | 17.22° C | 71% | 1013.9 hPa | 0 mm | - | 334 W/m² | - |
| 1777648518 | 16.67° C | 73% | 1013.8 hPa | 0 mm | - | 318 W/m² | - |
| 1777648218 | 16.67° C | 75% | 1013.8 hPa | 0 mm | - | 303 W/m² | - |
| 1777647918 | 16.11° C | 75% | 1013.8 hPa | 0 mm | - | 287 W/m² | - |
| 1777647618 | 16.67° C | 76% | 1013.8 hPa | 0 mm | - | 270 W/m² | - |
| 1777647318 | 16.11° C | 78% | 1013.7 hPa | 0 mm | - | 253 W/m² | - |
| 1777647018 | 15.56° C | 80% | 1013.8 hPa | 0 mm | - | 237 W/m² | - |
| 1777646718 | 15.56° C | 81% | 1013.8 hPa | 0 mm | - | 222 W/m² | - |
| 1777646418 | 15° C | 83% | 1013.7 hPa | 0 mm | - | 205 W/m² | - |
* Rain latest hour (hover to see other rain measurements)
** Current wind speed in m/s (hover to see current wind gust speed)